• Join FlightAware (Why Join?)
  • Login
  • US Flag 
11:33AM EDT


 

Airport Tracker/Info


-or-


 

Live Flight TrackerFlight Track Log ✈ CJT574 ✈ 10-Jul-2013 ✈ CYWG - CYHM

Flight Track Log - Related Links

Times and Time Zones

All times are in EDT time to prevent confusion due to time zone crossing. See the CJT574 flight status page for this flight to view local times or setup timezone preferences in your user account.

Time Position Orientation Groundspeed Altitude Reporting Facility
EDT Latitude Longitude Course Direction KTS MPH feet Rate Location/Type
02:41AM 49.9167 -97.2333 360° North 160 184 1,800  Level Winnipeg Center
02:42AM 49.9667 -97.2333 360° North 150 173 3,700 1,380 Climbing Winnipeg Center
02:43AM 49.9833 -97.1500 73° East 230 265 4,600 1,140 Climbing Winnipeg Center
02:44AM 49.9500 -97.0500 117° Southeast 290 334 6,000 1,980 Climbing Winnipeg Center
02:45AM 49.9333 -96.9333 102° East 290 334 8,600 2,160 Climbing Winnipeg Center
02:46AM 49.8833 -96.8167 124° Southeast 310 357 10,400 1,260 Climbing Winnipeg Center
02:47AM 49.8500 -96.6500 107° East 370 426 11,200 1,560 Climbing Winnipeg Center
02:48AM 49.8000 -96.5000 117° Southeast 390 449 13,600 2,160 Climbing Winnipeg Center
02:49AM 49.7667 -96.3667 111° Southeast 390 449 15,600 1,440 Climbing Winnipeg Center
02:50AM 49.7167 -96.1833 113° Southeast 400 460 16,500 1,200 Climbing Winnipeg Center
02:51AM 49.6500 -96.0167 122° Southeast 430 495 18,000 1,860 Climbing Winnipeg Center
02:52AM 49.6000 -95.8500 115° Southeast 440 506 20,300 1,740 Climbing Winnipeg Center
02:53AM 49.5500 -95.6833 115° Southeast 440 506 21,500 1,140 Climbing Winnipeg Center
02:54AM 49.5000 -95.5000 113° Southeast 460 529 22,600 1,500 Climbing Winnipeg Center
02:55AM 49.4500 -95.3167 113° Southeast 470 541 24,600 1,680 Climbing Winnipeg Center
02:56AM 49.4000 -95.1333 113° Southeast 470 541 26,000 1,560 Climbing Winnipeg Center
02:57AM 49.3500 -94.9667 115° Southeast 470 541 27,800 1,620 Climbing Winnipeg Center
02:58AM 49.2833 -94.7667 117° Southeast 460 529 29,300 1,200 Climbing Winnipeg Center
02:59AM 49.2333 -94.5833 113° Southeast 460 529 30,300 900 Climbing Winnipeg Center
03:00AM 49.1833 -94.4000 113° Southeast 470 541 31,100 780 Climbing Winnipeg Center
03:01AM 49.1333 -94.2333 115° Southeast 480 552 31,900 720 Climbing Winnipeg Center
03:02AM 49.0500 -94.0333 122° Southeast 480 552 32,600 540 Climbing Winnipeg Center
03:03AM 49.0000 -93.8500 113° Southeast 490 564 33,000 180 Climbing Winnipeg Center
03:04AM 48.9333 -93.6500 117° Southeast 500 575 33,000  Level Winnipeg Center
03:05AM 48.8667 -93.4833 121° Southeast 510 587 33,000  Level Winnipeg Center
03:06AM 48.8167 -93.2667 109° East 510 587 33,000  Level Winnipeg Center
03:07AM 48.7333 -93.0833 125° Southeast 510 587 33,000  Level Winnipeg Center
03:08AM 48.6833 -92.8833 111° Southeast 510 587 33,000  Level Winnipeg Center
03:09AM 48.6333 -92.6833 111° Southeast 510 587 33,000  Level Winnipeg Center
03:10AM 48.5500 -92.5167 127° Southeast 510 587 33,000  Level Winnipeg Center
03:11AM 48.5000 -92.3167 111° Southeast 500 575 33,000  Level Winnipeg Center
03:12AM 48.4333 -92.1333 119° Southeast 500 575 33,000  Level Winnipeg Center
03:13AM 48.3667 -91.9333 117° Southeast 500 575 33,000  Level Winnipeg Center
03:14AM 48.3000 -91.7667 121° Southeast 500 575 33,000  Level Winnipeg Center
03:15AM 48.2500 -91.5667 111° Southeast 500 575 33,000  Level Winnipeg Center
03:16AM 48.1667 -91.4000 127° Southeast 500 575 33,000 -60 Level Winnipeg Center
03:17AM 48.1122 -91.1867 111° Southeast 502 578 32,900 -60 Descending Minneapolis Center
03:18AM 48.0464 -91.0017 118° Southeast 503 579 32,900  Level Minneapolis Center
03:19AM 47.9803 -90.8158 118° Southeast 506 582 33,000  Climbing Minneapolis Center
03:20AM 47.9136 -90.6294 118° Southeast 508 585 32,900  Descending Minneapolis Center
03:21AM 47.8453 -90.4447 119° Southeast 510 587 33,000 60 Climbing Minneapolis Center
03:22AM 47.7667 -90.2667 123° Southeast 510 587 33,000 420 Level Winnipeg Center
03:23AM 47.7000 -90.0833 118° Southeast 510 587 33,700 540 Climbing Winnipeg Center
03:24AM 47.6500 -89.9167 114° Southeast 510 587 34,100 420 Climbing Winnipeg Center
03:25AM 47.5667 -89.7333 124° Southeast 510 587 34,600 420 Climbing Winnipeg Center
03:26AM 47.5000 -89.5333 116° Southeast 510 587 35,000 180 Climbing Winnipeg Center
03:27AM 47.4167 -89.3500 124° Southeast 510 587 35,000  Level Winnipeg Center
03:28AM 47.3667 -89.1667 112° Southeast 500 575 35,000  Level Winnipeg Center
03:29AM 47.3000 -89.0000 120° Southeast 500 575 35,000  Level Winnipeg Center
03:30AM 47.2167 -88.8167 124° Southeast 500 575 35,000  Level Winnipeg Center
03:31AM 47.1500 -88.6500 120° Southeast 490 564 35,000  Level Winnipeg Center
03:32AM 47.0833 -88.4667 118° Southeast 490 564 35,000  Level Winnipeg Center
03:32AM 47.0811 -88.4311 95° East 490 564 35,000  Level Minneapolis Center
03:33AM 47.0131 -88.2578 120° Southeast 489 563 35,000  Level Minneapolis Center
03:34AM 46.9425 -88.0822 120° Southeast 492 566 35,000  Level Minneapolis Center
03:35AM 46.8725 -87.9044 120° Southeast 496 571 35,000  Level Minneapolis Center
03:36AM 46.8000 -87.7261 121° Southeast 503 579 35,000  Level Minneapolis Center
03:37AM 46.7283 -87.5508 121° Southeast 508 585 35,000  Level Minneapolis Center
03:38AM 46.6561 -87.3747 121° Southeast 508 585 35,000  Level Minneapolis Center
03:39AM 46.5831 -87.1992 121° Southeast 508 585 35,000  Level Minneapolis Center
03:40AM 46.5111 -87.0217 120° Southeast 509 586 35,000  Level Minneapolis Center
03:41AM 46.4369 -86.8447 121° Southeast 513 590 35,000  Level Minneapolis Center
03:42AM 46.3625 -86.6675 121° Southeast 512 589 35,000  Level Minneapolis Center
03:43AM 46.2878 -86.4894 121° Southeast 517 595 35,000  Level Minneapolis Center
03:44AM 46.2131 -86.3119 121° Southeast 516 594 35,000  Level Minneapolis Center
03:45AM 46.1378 -86.1361 122° Southeast 515 593 35,000  Level Minneapolis Center
03:46AM 46.0617 -85.9581 122° Southeast 519 597 35,000  Level Minneapolis Center
03:47AM 45.9847 -85.7817 122° Southeast 519 597 35,000  Level Minneapolis Center
03:48AM 45.9067 -85.6053 122° Southeast 522 601 35,000  Level Minneapolis Center
03:49AM 45.8303 -85.4289 122° Southeast 519 597 35,000  Level Minneapolis Center
03:50AM 45.7531 -85.2531 122° Southeast 519 597 35,000  Level Minneapolis Center
03:52AM 45.6761 -85.0792 122° Southeast 517 595 35,000 -60 Level Minneapolis Center
03:53AM 45.5981 -84.9053 123° Southeast 518 596 34,900  Descending Minneapolis Center
03:54AM 45.5217 -84.7333 122° Southeast 515 593 35,000  Climbing Minneapolis Center
03:55AM 45.4436 -84.5611 123° Southeast 515 593 34,900  Descending Minneapolis Center
03:56AM 45.3667 -84.3931 123° Southeast 511 588 35,000  Climbing Minneapolis Center
03:57AM 45.2906 -84.2242 123° Southeast 510 587 35,000  Level Minneapolis Center
03:58AM 45.2139 -84.0569 123° Southeast 508 585 35,000  Level Minneapolis Center
03:59AM 45.1369 -83.8897 123° Southeast 506 582 35,000  Level Minneapolis Center
04:00AM 45.0594 -83.7242 123° Southeast 505 581 35,000  Level Minneapolis Center
04:01AM 44.9819 -83.5578 123° Southeast 507 583 35,000  Level Minneapolis Center
04:02AM 44.9053 -83.3928 123° Southeast 505 581 35,000  Level Minneapolis Center
04:03AM 44.8281 -83.2292 124° Southeast 503 579 35,000  Level Minneapolis Center
04:04AM 44.7492 -83.0650 124° Southeast 505 581 35,000  Level Minneapolis Center
04:05AM 44.6881 -82.9344 123° Southeast 503 579 35,000 -60 Level Minneapolis Center
04:06AM 44.5936 -82.7394 124° Southeast 503 579 34,900  Descending Minneapolis Center
04:07AM 44.5158 -82.5769 124° Southeast 503 579 35,000  Climbing Minneapolis Center
04:08AM 44.4375 -82.4161 124° Southeast 502 578 35,000  Level Minneapolis Center
04:09AM 44.3167 -82.1667 124° Southeast 500 575 35,000  Level Toronto Center
04:10AM 44.2167 -82.0000 130° Southeast 500 575 35,000  Level Toronto Center
04:11AM 44.1667 -81.8667 118° Southeast 510 587 35,000 -600 Level Toronto Center
04:12AM 44.0833 -81.7000 125° Southeast 510 587 33,800 -2,340 Descending Toronto Center
04:13AM 43.9833 -81.5333 130° Southeast 510 587 30,400 -3,060 Descending Toronto Center
04:14AM 43.9167 -81.3667 119° Southeast 500 575 27,800 -2,700 Descending Toronto Center
04:15AM 43.8167 -81.2333 136° Southeast 470 541 25,100 -2,760 Descending Toronto Center
04:16AM 43.7500 -81.0833 122° Southeast 460 529 22,300 -2,760 Descending Toronto Center
04:17AM 43.6833 -80.9667 128° Southeast 450 518 19,600 -2,880 Descending Toronto Center
04:18AM 43.6000 -80.8333 131° Southeast 430 495 16,600 -2,880 Descending Toronto Center
04:19AM 43.5500 -80.7167 121° Southeast 420 483 13,900 -2,640 Descending Toronto Center
04:20AM 43.4667 -80.5667 127° Southeast 400 460 11,400 -1,920 Descending Toronto Center
04:21AM 43.4167 -80.4833 130° Southeast 350 403 10,100 -1,620 Descending Toronto Center
04:22AM 43.3667 -80.3833 124° Southeast 280 322 8,200 -1,800 Descending Toronto Center
04:23AM 43.3333 -80.3167 124° Southeast 260 299 6,600 -1,620 Descending Toronto Center
04:24AM 43.2833 -80.2500 136° Southeast 250 288 5,100 -1,560 Descending Toronto Center
04:25AM 43.2500 -80.1833 124° Southeast 230 265 3,500 -1,140 Descending Toronto Center
04:26AM 43.2167 -80.1167 124° Southeast 210 242 2,900 -600 Descending Toronto Center
04:27AM 43.2000 -80.0500 109° East 200 230 2,400 -660 Descending Toronto Center
04:28AM 43.1833 -79.9833 109° East 180 207 1,600 -840 Descending Toronto Center
04:29AM 43.1667 -79.9333 115° Southeast 150 173 800 -840 Descending Toronto Center